x

Montauk Point -23 Nm Ssw Of Montauk Point, Ny (44017) Wave Buoy

4:50am - Sun 27th May 2018 All times are EDT. -4 hours from GMT.

  • Sig Wave height 3.0ft
  • Swell Direction
  • Peak Period 6s
  • Average Period 5s
  • Wind
    16mph, 18mph gusts
  • Sea Temp 55°f
  • Air Temp 57°f
  • Sea Pressure 1013.8mb
  • Montauk Point -23 Nm Ssw Of Montauk Point, Ny
  • Montauk Point -23 Nm Ssw Of Montauk Point, Ny

More Historic Weather Station data

Upgrade to MSW Pro to gain access to the past 30 days of data for over 8000 Wavebouys and Weather Stations around the globe.

Join

Comparision Forecast

View Surf forecast
   
Sun 05/27 4:50am 3ft 6s 5s 16 18 mph 1013.8mb 55f 57f
3:50am 2.5ft 6s 5s 16 16 mph 1013.5mb 55f 57f
2:50am 2.5ft 6s 5s 2 4 mph 1012.8mb 55f 59f
1:50am 2.5ft 5s 5s 9 9 mph 1013.6mb 55f 58f
12:50am 2.5ft 6s 5s 9 29 mph 1012.7mb 55f 58f
Sat 05/26 11:50pm 2.5ft 5s 5s 7 9 mph 1012.4mb 55f 57f
10:50pm 2.5ft 6s 5s 11 11 mph 1012.2mb 55f 58f
9:50pm 2.5ft 6s 5s 7 9 mph 1012mb 55f 58f
8:50pm 2.5ft 5s 5s 9 9 mph 1011.2mb 56f 58f
7:50pm 2.5ft 6s 5s 7 9 mph 1011mb 55f 58f
6:50pm 2.5ft 5s 5s 7 7 mph 1010.3mb 55f 58f
5:50pm 3ft 6s 4s 7 9 mph 1010.1mb 55f 58f
4:50pm 3ft 5s 4s 9 11 mph 1009.9mb 55f 58f
3:50pm 2.5ft 5s 4s 13 16 mph 1009.7mb 55f 59f
2:50pm 3ft 5s 4s 13 16 mph 1009.9mb 55f 58f
1:50pm 3ft 6s 4s 16 18 mph 1009.9mb 55f 58f
12:50pm 3.5ft 6s 4s 13 16 mph 1010.4mb 55f 58f
11:50am 3.5ft 6s 5s 11 13 mph 1010.6mb 55f 58f
10:50am 3.5ft 6s 5s 13 16 mph 1010.8mb 54f 58f
9:50am 3.5ft 6s 4s 16 18 mph 1010.6mb 54f 58f
8:50am 3.5ft 6s 5s 16 18 mph 1010.5mb 54f 58f
7:50am 4ft 6s 5s 18 18 mph 1010.4mb 54f 58f
6:50am 4ft 5s 5s 18 20 mph 1010mb 54f 58f
5:50am 4ft 6s 5s 18 20 mph 1010mb 54f 58f
3:50am 5ft 6s 5s 18 18 mph 1010.2mb 54f 58f
2:50am 5ft 6s 5s 18 20 mph 1010.5mb 54f 58f
1:50am 5.5ft 7s 5s 20 22 mph 1010.4mb 54f 59f
12:50am 5ft 6s 5s 20 22 mph 1010.8mb 54f 59f
Fri 05/25 11:50pm 5ft 6s 5s 20 22 mph 1010.9mb 54f 59f
10:50pm 5ft 6s 5s 22 25 mph 1010.9mb 54f 60f
9:50pm 4.5ft 5s 4s 22 27 mph 1010.8mb 55f 61f
8:50pm 4ft 5s 4s 20 25 mph 1011.1mb 55f 61f
7:50pm 4ft 5s 4s 20 25 mph 1011.2mb 56f 60f
6:50pm 3.5ft 5s 4s 22 25 mph 1011.3mb 56f 60f
5:50pm 3.5ft 4s 4s 20 22 mph 1011.5mb 56f 60f
4:50pm 3.5ft 5s 4s 20 25 mph 1012.2mb 56f 60f
3:50pm 3.5ft 4s 4s 22 25 mph 1012.8mb 56f 60f
8:50am 2.5ft 4s 4s 13 16 mph 1017.4mb 55f 58f
7:50am 2.5ft 5s 4s 13 16 mph 1017.6mb 55f 58f
6:50am 2.5ft 4s 4s 13 16 mph 1017.8mb 55f 58f
5:50am 2ft 4s 4s 13 16 mph 1017.5mb 55f 57f
4:50am 2.5ft 4s 4s 16 18 mph 1017.3mb 56f 58f
3:50am 2ft 4s 4s 16 18 mph 1017.7mb 56f 58f
2:50am 2ft 4s 4s 16 18 mph 1018.2mb 55f 57f
1:50am 2ft 7s 4s 11 11 mph 1019mb 55f 57f
12:50am 2.5ft 8s 4s 11 11 mph 1019.5mb 55f 57f
Thu 05/24 11:50pm 2.5ft 4s 4s 11 11 mph 1019.8mb 55f 56f
10:50pm 2.5ft 8s 4s 13 16 mph 1020mb 55f 54f
9:50pm 2.5ft 3s 4s 16 18 mph 1020.3mb 55f 53f
8:50pm 2.5ft 3s 4s 16 18 mph 1019.9mb 55f 53f
7:50pm 2.5ft 8s 4s 16 18 mph 1019.6mb 56f 53f
6:50pm 2.5ft 8s 4s 13 16 mph 1019.9mb 56f 52f
5:50pm 2.5ft 6s 4s 13 18 mph 1020.3mb 56f 53f
1:50pm 2ft 6s 6s 9 11 mph 1020.3mb 57f 53f
11:50am 2.5ft 7s 6s 7 9 mph 1020.4mb 59f 59f
10:50am 2.5ft 6s 6s 2 2 mph 1020mb 57f 58f
9:50am 2.5ft 7s 6s 4 4 mph 1019.8mb 56f 58f
8:50am 2.5ft 7s 6s  -  2 mph 1019.5mb 55f 57f
7:50am 2.5ft 7s 6s 9 9 mph 1018.8mb 55f 57f
6:50am 2.5ft 7s 6s 7 9 mph 1018mb 55f 57f
5:50am 2ft 7s 6s 7 9 mph 1016.9mb 55f 58f
4:50am 2.5ft 6s 6s 7 9 mph 1016.1mb 55f 58f
3:50am 2.5ft 7s 6s 7 9 mph 1015.5mb 55f 59f
2:50am 2ft 6s 6s 11 11 mph 1015.3mb 55f 60f
1:50am 2ft 7s 5s 9 11 mph 1015.2mb 55f 61f
12:50am 2.5ft 6s 5s 11 11 mph 1015.1mb 55f 62f
Wed 05/23 11:50pm 2.5ft 7s 5s 9 11 mph 1015mb 55f 59f
10:50pm 2ft 7s 5s 9 9 mph 1014.7mb 55f 58f
9:50pm 2.5ft 7s 5s 11 11 mph 1014.5mb 55f 59f
8:50pm 2ft 8s 5s 11 13 mph 1014mb 55f 59f
7:50pm 2ft 8s 5s 9 11 mph 1013.5mb 55f 59f
6:50pm 2ft 8s 6s 11 11 mph 1013.1mb 56f 59f
5:50pm 2ft 8s 6s 11 11 mph 1012.9mb 56f 59f
4:50pm 2ft 9s 5s 9 11 mph 1013mb 56f 59f
3:50pm 1.6ft 8s 5s 9 9 mph 1013mb 56f 58f
2:50pm 2ft 8s 5s 11 13 mph 1013.1mb 56f 57f
1:50pm 2ft 9s 5s 9 11 mph 1013.4mb 56f 56f
12:50pm 2ft 8s 6s 11 13 mph 1013.4mb 55f 56f
11:50am 2ft 8s 6s 11 11 mph 1013.6mb 55f 55f
10:50am 2ft 8s 6s 7 9 mph 1013.9mb 55f 56f